Time;durP1;ratioP1;P1;durP2;ratioP2;P2;SDS_P1;SDS_P2;PMS_P1;PMS_P2;Temp;Humidity;BMP_temperature;BMP_pressure;BME280_temperature;BME280_humidity;BME280_pressure;Samples;Min_cycle;Max_cycle;Signal;HPM_P1;HPM_P2
2022/11/02 00:00:32;;;;;;;11.27;2.38;;;12.90;99.90;;;;;;4896699;29;21368;-58
2022/11/02 00:02:58;;;;;;;12.48;2.58;;;12.90;99.90;;;;;;4899299;29;20053;-58
2022/11/02 00:05:25;;;;;;;10.45;1.92;;;12.90;99.90;;;;;;4895035;29;20052;-58
2022/11/02 00:07:52;;;;;;;10.20;2.10;;;12.80;99.90;;;;;;4895181;29;20056;-58
2022/11/02 00:10:19;;;;;;;14.63;2.70;;;12.80;99.90;;;;;;4893705;29;20056;-56
2022/11/02 00:12:46;;;;;;;14.52;2.67;;;12.80;99.90;;;;;;4893383;29;20065;-58
2022/11/02 00:15:12;;;;;;;9.45;2.15;;;12.80;99.90;;;;;;4896270;29;20100;-57
2022/11/02 00:17:42;;;;;;;12.30;2.00;;;12.80;99.90;;;;;;4893434;29;20048;-58
2022/11/02 00:20:10;;;;;;;9.07;2.10;;;12.80;99.90;;;;;;4892180;29;21130;-59
2022/11/02 00:22:37;;;;;;;10.63;2.53;;;12.70;99.90;;;;;;4895030;29;20475;-58
2022/11/02 00:25:05;;;;;;;13.32;2.95;;;12.70;99.90;;;;;;4894372;29;20086;-57
2022/11/02 00:27:32;;;;;;;8.75;2.50;;;12.70;99.90;;;;;;4895051;29;20138;-58
2022/11/02 00:29:59;;;;;;;7.45;3.10;;;12.70;99.90;;;;;;4894274;29;20131;-58
2022/11/02 00:32:25;;;;;;;10.55;2.63;;;12.60;99.90;;;;;;4922446;28;20045;-58
2022/11/02 00:34:51;;;;;;;12.93;3.08;;;12.50;99.90;;;;;;4894418;29;20410;-58
2022/11/02 00:37:17;;;;;;;8.82;3.10;;;12.40;99.90;;;;;;4895303;29;20051;-59
2022/11/02 00:39:43;;;;;;;9.13;2.22;;;12.40;99.90;;;;;;4892474;29;20048;-58
2022/11/02 00:42:10;;;;;;;8.70;2.75;;;12.30;99.90;;;;;;4895551;29;20078;-56
2022/11/02 00:44:35;;;;;;;11.52;4.38;;;12.20;99.90;;;;;;4923850;28;20048;-58
2022/11/02 00:47:01;;;;;;;7.90;2.17;;;12.10;99.90;;;;;;4892280;29;20056;-58
2022/11/02 00:49:27;;;;;;;6.35;2.55;;;12.10;99.90;;;;;;4896860;29;20066;-57
2022/11/02 00:51:53;;;;;;;7.95;1.98;;;12.00;99.90;;;;;;4893604;29;20056;-57
2022/11/02 00:54:19;;;;;;;7.97;2.03;;;12.00;99.90;;;;;;4892058;29;20052;-58
2022/11/02 00:56:44;;;;;;;5.80;1.40;;;11.90;99.90;;;;;;4893755;29;20090;-57
2022/11/02 00:59:10;;;;;;;4.25;1.50;;;11.90;99.90;;;;;;4894581;29;20044;-57
2022/11/02 01:01:36;;;;;;;5.10;2.00;;;11.90;99.90;;;;;;4893184;29;20143;-57
2022/11/02 01:04:02;;;;;;;7.50;1.92;;;11.80;99.90;;;;;;4894741;29;20048;-59
2022/11/02 01:06:28;;;;;;;4.15;1.35;;;11.80;99.90;;;;;;4894317;29;20123;-59
2022/11/02 01:08:54;;;;;;;5.15;1.70;;;11.80;99.90;;;;;;4896151;29;20173;-57
2022/11/02 01:11:22;;;;;;;4.15;1.30;;;11.80;99.90;;;;;;4893364;29;20199;-59
2022/11/02 01:13:51;;;;;;;2.63;1.00;;;11.80;99.90;;;;;;4913515;29;20059;-57
2022/11/02 01:16:18;;;;;;;7.10;1.40;;;11.70;99.90;;;;;;4896257;29;20045;-57
2022/11/02 01:18:43;;;;;;;6.13;1.33;;;11.70;99.90;;;;;;4894421;29;20372;-58
2022/11/02 01:21:09;;;;;;;5.70;1.50;;;11.70;99.90;;;;;;4898087;29;20052;-58
2022/11/02 01:23:36;;;;;;;5.90;1.27;;;11.70;99.90;;;;;;4894420;29;20052;-59
2022/11/02 01:26:08;;;;;;;4.32;1.00;;;11.60;99.90;;;;;;4897437;29;20045;-57
2022/11/02 01:28:34;;;;;;;5.38;1.48;;;11.60;99.90;;;;;;4897524;29;20047;-58
2022/11/02 01:31:00;;;;;;;5.00;1.30;;;11.50;99.90;;;;;;4896477;29;20744;-59
2022/11/02 01:33:26;;;;;;;3.75;1.00;;;11.60;99.90;;;;;;4895963;29;20452;-57
2022/11/02 01:35:53;;;;;;;5.60;1.17;;;11.50;99.90;;;;;;4906669;29;20444;-58
2022/11/02 01:38:19;;;;;;;6.63;1.10;;;11.50;99.90;;;;;;4896780;29;20044;-59
2022/11/02 01:40:45;;;;;;;4.35;1.15;;;11.50;99.90;;;;;;4894149;29;20044;-58
2022/11/02 01:43:22;;;;;;;5.95;1.20;;;11.40;99.90;;;;;;4894299;29;20120;-58
2022/11/02 01:45:52;;;;;;;4.50;1.23;;;11.50;99.90;;;;;;4894536;29;20059;-58
2022/11/02 01:48:24;;;;;;;3.78;1.30;;;11.40;99.90;;;;;;4894598;29;20542;-59
2022/11/02 01:50:50;;;;;;;1.58;0.75;;;11.40;99.90;;;;;;4926248;29;20044;-57
2022/11/02 01:53:16;;;;;;;2.83;0.93;;;11.40;99.90;;;;;;4895748;29;20113;-57
2022/11/02 01:55:42;;;;;;;4.75;1.10;;;11.40;99.90;;;;;;4893258;29;20048;-58
2022/11/02 01:58:10;;;;;;;2.92;1.00;;;11.30;99.90;;;;;;4922011;29;20188;-57
2022/11/02 02:00:37;;;;;;;5.72;1.50;;;11.30;99.90;;;;;;4893685;29;20053;-57
2022/11/02 02:03:16;;;;;;;7.88;3.95;;;11.30;99.90;;;;;;4894491;29;20048;-57
2022/11/02 02:06:05;;;;;;;6.38;2.63;;;11.40;99.90;;;;;;4891781;29;20059;-57
2022/11/02 02:08:31;;;;;;;4.30;1.10;;;11.40;99.90;;;;;;4892130;29;20411;-58
2022/11/02 02:10:58;;;;;;;5.72;2.53;;;11.30;99.90;;;;;;4894543;29;20049;-58
2022/11/02 02:13:26;;;;;;;4.40;1.40;;;11.30;99.90;;;;;;4893814;29;20064;-57
2022/11/02 02:16:19;;;;;;;1.20;0.60;;;11.20;99.90;;;;;;4893700;29;20055;-57
2022/11/02 02:18:56;;;;;;;1.42;0.93;;;11.10;99.90;;;;;;4889655;29;20071;-58
2022/11/02 02:21:36;;;;;;;3.33;1.20;;;11.10;99.90;;;;;;4894365;29;20131;-57
2022/11/02 02:24:13;;;;;;;1.27;0.63;;;11.10;99.90;;;;;;4891211;29;20123;-57
2022/11/02 02:27:04;;;;;;;2.85;1.92;;;11.00;99.90;;;;;;4892960;29;20048;-58
2022/11/02 02:29:51;;;;;;;5.43;2.65;;;11.00;99.90;;;;;;4891225;29;20052;-58
2022/11/02 02:32:26;;;;;;;5.30;1.63;;;11.00;99.90;;;;;;4894898;29;20471;-57
2022/11/02 02:35:11;;;;;;;3.75;1.45;;;11.00;99.90;;;;;;4888427;29;20041;-59
2022/11/02 02:37:48;;;;;;;5.40;1.83;;;11.10;99.90;;;;;;4892901;29;20052;-57
2022/11/02 02:40:19;;;;;;;4.35;1.75;;;11.10;99.90;;;;;;4894355;29;20380;-57
2022/11/02 02:42:52;;;;;;;8.77;1.73;;;11.10;99.90;;;;;;4892205;29;20175;-58
2022/11/02 02:45:34;;;;;;;7.57;2.00;;;11.10;99.90;;;;;;4893102;29;20052;-57
2022/11/02 02:48:08;;;;;;;6.50;1.92;;;11.10;99.90;;;;;;4894016;29;20055;-58
2022/11/02 02:50:41;;;;;;;6.55;1.90;;;11.10;99.90;;;;;;4893803;29;20123;-57
2022/11/02 02:53:07;;;;;;;;;;;11.10;99.90;;;;;;4893502;29;20055;-57
2022/11/02 02:55:40;;;;;;;4.20;1.90;;;11.10;99.90;;;;;;4894380;29;19931;-58
2022/11/02 02:58:10;;;;;;;6.30;2.28;;;11.10;99.90;;;;;;4892509;29;20036;-58
2022/11/02 03:00:36;;;;;;;10.23;2.45;;;11.10;99.90;;;;;;4891808;29;20480;-59
2022/11/02 03:03:04;;;;;;;7.40;2.00;;;11.10;99.90;;;;;;4909855;29;20080;-58
2022/11/02 03:05:33;;;;;;;9.93;2.10;;;11.10;99.90;;;;;;4890532;29;20049;-57
2022/11/02 03:08:09;;;;;;;9.50;2.30;;;11.10;99.90;;;;;;4891468;29;20056;-58
2022/11/02 03:11:13;;;;;;;7.40;2.80;;;11.10;99.90;;;;;;4894852;29;21360;-58
2022/11/02 03:13:53;;;;;;;9.30;2.00;;;11.20;99.90;;;;;;4881640;29;20075;-57
2022/11/02 03:16:41;;;;;;;8.07;4.13;;;11.20;99.90;;;;;;4890369;29;20518;-57
2022/11/02 03:19:23;;;;;;;8.20;2.10;;;11.10;99.90;;;;;;4907684;29;20051;-58
2022/11/02 03:21:59;;;;;;;7.40;2.17;;;11.10;99.90;;;;;;4889040;29;20127;-57
2022/11/02 03:24:44;;;;;;;4.53;1.73;;;11.10;99.90;;;;;;4893292;29;20085;-59
2022/11/02 03:27:33;;;;;;;3.83;1.60;;;11.00;99.90;;;;;;4894193;29;20044;-58
2022/11/02 03:30:04;;;;;;;9.88;2.45;;;11.00;99.90;;;;;;4894621;29;20144;-58
2022/11/02 03:32:49;;;;;;;7.07;2.30;;;10.90;99.90;;;;;;4891975;29;20056;-57
2022/11/02 03:35:23;;;;;;;9.45;3.03;;;10.90;99.90;;;;;;4898336;29;20538;-57
2022/11/02 03:37:58;;;;;;;7.50;2.38;;;10.90;99.90;;;;;;4899202;29;20080;-57
2022/11/02 03:40:29;;;;;;;5.18;1.42;;;10.90;99.90;;;;;;4898130;29;20044;-58
2022/11/02 03:42:56;;;;;;;6.93;1.83;;;10.90;99.90;;;;;;4898380;29;20050;-57
2022/11/02 03:45:27;;;;;;;5.05;1.48;;;10.90;99.90;;;;;;4895123;29;20055;-57
2022/11/02 03:48:00;;;;;;;6.32;1.42;;;10.90;99.90;;;;;;4898359;29;20063;-59
2022/11/02 03:50:26;;;;;;;5.65;1.52;;;10.90;99.90;;;;;;4899137;29;20052;-57
2022/11/02 03:53:00;;;;;;;7.50;1.65;;;10.90;99.90;;;;;;4899312;29;20048;-56
2022/11/02 03:55:34;;;;;;;3.90;1.33;;;10.90;99.90;;;;;;4895851;29;20123;-58
2022/11/02 03:58:00;;;;;;;6.57;1.60;;;10.90;99.90;;;;;;4894049;29;20115;-58
2022/11/02 04:00:28;;;;;;;5.55;1.80;;;10.80;99.90;;;;;;4895574;29;20052;-57
2022/11/02 04:02:57;;;;;;;12.95;2.65;;;10.80;99.90;;;;;;4893696;29;20167;-58
2022/11/02 04:05:31;;;;;;;10.38;2.25;;;10.80;99.90;;;;;;4895806;29;20178;-57
2022/11/02 04:16:11;;;;;;;16.60;3.20;;;10.70;99.90;;;;;;4894046;29;20056;-57
2022/11/02 04:21:21;;;;;;;14.93;4.38;;;10.70;99.90;;;;;;4907096;29;20048;-58
2022/11/02 04:26:31;;;;;;;11.60;3.28;;;10.70;99.90;;;;;;4896399;29;20048;-62
2022/11/02 04:28:57;;;;;;;8.88;3.03;;;10.80;99.90;;;;;;4895583;29;20529;-58
2022/11/02 04:31:23;;;;;;;9.20;3.10;;;10.80;99.90;;;;;;4891903;29;20051;-58
2022/11/02 04:33:49;;;;;;;10.57;2.70;;;10.80;99.90;;;;;;4894756;29;20079;-57
2022/11/02 04:36:15;;;;;;;11.50;3.20;;;10.80;99.90;;;;;;4895313;29;20499;-57
2022/11/02 04:38:41;;;;;;;11.38;3.50;;;10.80;99.90;;;;;;4924781;29;20438;-58
2022/11/02 04:44:04;;;;;;;10.63;2.10;;;10.90;99.90;;;;;;4894207;29;20106;-58
2022/11/02 04:46:32;;;;;;;9.27;2.10;;;10.90;99.90;;;;;;4896085;29;20052;-58
2022/11/02 04:48:58;;;;;;;11.57;2.40;;;10.80;99.90;;;;;;4897944;29;20083;-58
2022/11/02 04:51:26;;;;;;;9.05;2.03;;;10.80;99.90;;;;;;4894464;29;20146;-57
2022/11/02 04:53:53;;;;;;;10.55;2.72;;;10.80;99.90;;;;;;4896427;29;20043;-58
2022/11/02 04:56:19;;;;;;;10.20;3.65;;;10.80;99.90;;;;;;4924663;29;20097;-58
2022/11/02 04:58:56;;;;;;;10.35;2.88;;;10.80;99.90;;;;;;4893493;29;20163;-58
2022/11/02 05:01:24;;;;;;;13.90;3.15;;;10.80;99.90;;;;;;4895514;29;20539;-58
2022/11/02 05:03:51;;;;;;;9.05;2.78;;;10.70;99.90;;;;;;4892415;29;20048;-58
2022/11/02 05:06:18;;;;;;;13.90;4.40;;;10.70;99.90;;;;;;4895540;29;20051;-58
2022/11/02 05:08:44;;;;;;;9.48;3.08;;;10.70;99.90;;;;;;4892070;29;20044;-57
2022/11/02 05:11:11;;;;;;;12.23;3.47;;;10.70;99.90;;;;;;4892318;29;20048;-57
2022/11/02 05:13:38;;;;;;;14.77;4.55;;;10.70;99.90;;;;;;4891327;29;20103;-57
2022/11/02 05:16:05;;;;;;;14.10;5.15;;;10.70;99.90;;;;;;4895012;29;20063;-58
2022/11/02 05:18:31;;;;;;;14.02;3.90;;;10.70;99.90;;;;;;4900636;29;20063;-56
2022/11/02 05:20:59;;;;;;;14.73;4.30;;;10.70;99.90;;;;;;4893336;29;20048;-57
2022/11/02 05:23:26;;;;;;;12.73;3.97;;;10.80;99.90;;;;;;4892958;29;20052;-58
2022/11/02 05:25:52;;;;;;;12.27;4.90;;;10.80;99.90;;;;;;4893873;29;20352;-56
2022/11/02 05:28:18;;;;;;;10.05;4.05;;;10.80;99.90;;;;;;4900939;29;20076;-58
2022/11/02 05:30:44;;;;;;;10.82;2.58;;;10.70;99.90;;;;;;4893150;29;20091;-58
2022/11/02 05:33:10;;;;;;;11.35;2.85;;;10.70;99.90;;;;;;4889372;29;20080;-57
2022/11/02 05:35:36;;;;;;;9.55;3.05;;;10.70;99.90;;;;;;4896004;29;20047;-57
2022/11/02 05:38:01;;;;;;;6.10;2.30;;;10.70;99.90;;;;;;4891762;29;20048;-57
2022/11/02 05:40:27;;;;;;;11.05;3.60;;;10.70;99.90;;;;;;4894830;29;20048;-58
2022/11/02 05:43:00;;;;;;;11.60;2.58;;;10.70;99.90;;;;;;4894252;29;20049;-57
2022/11/02 05:45:26;;;;;;;11.90;3.28;;;10.70;99.90;;;;;;4895339;29;20782;-57
2022/11/02 05:47:52;;;;;;;12.50;3.65;;;10.70;99.90;;;;;;4892627;29;20059;-59
2022/11/02 05:50:18;;;;;;;8.95;3.10;;;10.60;99.90;;;;;;4893946;29;20064;-59
2022/11/02 05:52:44;;;;;;;15.55;3.70;;;10.70;99.90;;;;;;4898576;29;20158;-58
2022/11/02 05:55:10;;;;;;;13.95;3.63;;;10.70;99.90;;;;;;4895102;29;20127;-57
2022/11/02 05:57:36;;;;;;;9.30;2.42;;;10.70;99.90;;;;;;4896813;29;20044;-58
2022/11/02 06:00:03;;;;;;;10.48;2.25;;;10.70;99.90;;;;;;4898248;29;20123;-57
2022/11/02 06:02:29;;;;;;;16.52;3.28;;;10.70;99.90;;;;;;4895816;29;20049;-58
2022/11/02 06:04:55;;;;;;;7.97;2.80;;;10.70;99.90;;;;;;4896139;29;20530;-57
2022/11/02 06:07:21;;;;;;;16.10;3.20;;;10.70;99.90;;;;;;4895894;29;20056;-58
2022/11/02 06:09:47;;;;;;;15.73;2.42;;;10.70;99.90;;;;;;4887756;29;20076;-57
2022/11/02 06:12:13;;;;;;;11.95;3.78;;;10.60;99.90;;;;;;4890654;29;20107;-58
2022/11/02 06:14:39;;;;;;;12.88;3.50;;;10.70;99.90;;;;;;4893400;29;20091;-58
2022/11/02 06:17:05;;;;;;;16.55;3.40;;;10.60;99.90;;;;;;4893205;29;20474;-58
2022/11/02 06:19:31;;;;;;;12.40;2.88;;;10.60;99.90;;;;;;4886885;29;20036;-58
2022/11/02 06:21:56;;;;;;;16.83;2.70;;;10.60;99.90;;;;;;4890825;29;20059;-57
2022/11/02 06:24:22;;;;;;;17.38;3.40;;;10.60;99.90;;;;;;4892717;29;20056;-57
2022/11/02 06:26:48;;;;;;;15.38;2.75;;;10.60;99.90;;;;;;4892186;29;20055;-57
2022/11/02 06:29:14;;;;;;;15.52;2.67;;;10.70;99.90;;;;;;4894504;29;20044;-57
2022/11/02 06:31:40;;;;;;;12.32;2.90;;;10.70;99.90;;;;;;4888714;29;20048;-57
2022/11/02 06:34:05;;;;;;;14.75;3.28;;;10.70;99.90;;;;;;4923220;29;20048;-57
2022/11/02 06:36:31;;;;;;;15.25;2.60;;;10.70;99.90;;;;;;4893204;29;20518;-57
2022/11/02 06:38:57;;;;;;;11.07;2.70;;;10.70;99.90;;;;;;4891169;29;20535;-57
2022/11/02 06:41:23;;;;;;;14.68;2.60;;;10.80;99.90;;;;;;4890056;29;20104;-58
2022/11/02 06:43:48;;;;;;;12.70;2.63;;;10.80;99.90;;;;;;4895903;29;20058;-57
2022/11/02 06:46:14;;;;;;;9.70;2.40;;;10.80;99.90;;;;;;4889509;29;20407;-59
2022/11/02 06:48:40;;;;;;;12.15;2.95;;;10.80;99.90;;;;;;4890742;29;20044;-57
2022/11/02 06:51:06;;;;;;;11.48;2.05;;;10.80;99.90;;;;;;4892570;29;20157;-56
2022/11/02 06:53:32;;;;;;;12.50;2.75;;;10.80;99.90;;;;;;4894318;29;20048;-58
2022/11/02 06:55:59;;;;;;;13.32;2.55;;;10.80;99.90;;;;;;4893381;29;20182;-58
2022/11/02 06:58:25;;;;;;;9.98;2.22;;;10.80;99.90;;;;;;4880972;29;20479;-58
2022/11/02 07:01:00;;;;;;;12.07;2.45;;;10.80;99.90;;;;;;4892523;29;20528;-57
2022/11/02 07:03:26;;;;;;;15.88;2.60;;;10.80;99.90;;;;;;4890134;29;20554;-58
2022/11/02 07:05:53;;;;;;;14.98;2.72;;;10.80;99.90;;;;;;4886193;29;20091;-57
2022/11/02 07:08:19;;;;;;;14.77;2.33;;;10.80;99.90;;;;;;4891412;29;20414;-57
2022/11/02 07:10:45;;;;;;;13.50;2.72;;;10.80;99.90;;;;;;4887594;29;20064;-58
2022/11/02 07:13:12;;;;;;;10.43;1.90;;;10.90;99.90;;;;;;4898004;29;20048;-57
2022/11/02 07:15:38;;;;;;;15.35;2.60;;;10.90;99.90;;;;;;4898139;29;20045;-57
2022/11/02 07:18:05;;;;;;;16.70;3.53;;;10.90;99.90;;;;;;4902771;29;20121;-57
2022/11/02 07:20:32;;;;;;;13.82;2.70;;;10.90;99.90;;;;;;4901448;29;20096;-57
2022/11/02 07:23:00;;;;;;;11.48;2.28;;;10.90;99.90;;;;;;4896313;29;20048;-58
2022/11/02 07:25:27;;;;;;;11.60;2.05;;;10.90;99.90;;;;;;4900450;29;20048;-58
2022/11/02 07:27:53;;;;;;;7.68;2.10;;;10.90;99.90;;;;;;4909237;29;20098;-57
2022/11/02 07:30:21;;;;;;;9.40;1.75;;;10.90;99.90;;;;;;4900938;29;20171;-57
2022/11/02 07:32:47;;;;;;;12.35;2.22;;;10.90;99.90;;;;;;4898851;29;20048;-57
2022/11/02 07:35:15;;;;;;;9.70;1.88;;;10.90;99.90;;;;;;4898570;29;20048;-57
2022/11/02 07:37:41;;;;;;;12.90;2.20;;;10.90;99.90;;;;;;4895413;29;20048;-58
2022/11/02 07:40:09;;;;;;;13.13;2.05;;;10.90;99.90;;;;;;4891910;29;20036;-57
2022/11/02 07:42:40;;;;;;;10.73;2.30;;;10.90;99.90;;;;;;4898670;29;20040;-57
2022/11/02 07:45:06;;;;;;;7.65;1.70;;;10.90;99.90;;;;;;4896954;29;20051;-57
2022/11/02 07:47:32;;;;;;;14.20;2.05;;;10.80;99.90;;;;;;4895007;29;20056;-57
2022/11/02 07:49:58;;;;;;;9.68;1.80;;;10.80;99.90;;;;;;4896919;29;20432;-57
2022/11/02 07:52:24;;;;;;;11.88;2.13;;;10.80;99.90;;;;;;4894162;29;20086;-57
2022/11/02 07:54:50;;;;;;;12.25;2.30;;;10.80;99.90;;;;;;4906434;29;20048;-57
2022/11/02 07:57:16;;;;;;;10.73;1.90;;;10.80;99.90;;;;;;4901732;29;20114;-57
2022/11/02 07:59:42;;;;;;;11.38;1.60;;;10.80;99.90;;;;;;4898036;29;20146;-57
2022/11/02 08:02:12;;;;;;;9.15;1.48;;;10.80;99.90;;;;;;4894851;29;20057;-58
2022/11/02 08:04:38;;;;;;;6.15;1.42;;;10.80;99.90;;;;;;4894623;29;20115;-58
2022/11/02 08:07:03;;;;;;;5.60;1.60;;;10.80;99.90;;;;;;4896823;29;20484;-57
2022/11/02 08:09:29;;;;;;;12.35;2.08;;;10.80;99.90;;;;;;4894387;29;20056;-57
2022/11/02 08:11:56;;;;;;;6.70;1.40;;;10.80;99.90;;;;;;4894406;29;20079;-58
2022/11/02 08:14:22;;;;;;;8.25;1.52;;;10.90;99.90;;;;;;4893189;29;20052;-57
2022/11/02 08:16:51;;;;;;;6.60;1.65;;;11.00;99.90;;;;;;4891648;29;20044;-57
2022/11/02 08:19:16;;;;;;;8.73;1.80;;;11.10;99.90;;;;;;4894806;29;20508;-57
2022/11/02 08:21:42;;;;;;;7.95;1.70;;;11.10;99.90;;;;;;4896845;29;20138;-57
2022/11/02 08:24:08;;;;;;;9.43;1.70;;;11.20;99.90;;;;;;4895473;29;20128;-57
2022/11/02 08:26:34;;;;;;;8.57;1.98;;;11.30;99.90;;;;;;4896765;29;20143;-58
2022/11/02 08:29:01;;;;;;;9.70;1.90;;;11.40;99.90;;;;;;4894782;29;20103;-58
2022/11/02 08:31:27;;;;;;;12.50;2.47;;;11.40;99.90;;;;;;4894366;29;20992;-57
2022/11/02 08:33:53;;;;;;;9.30;1.83;;;11.50;99.90;;;;;;4895860;29;20059;-57
2022/11/02 08:36:19;;;;;;;12.63;2.42;;;11.60;99.90;;;;;;4893632;29;20045;-58
2022/11/02 08:38:44;;;;;;;10.13;1.77;;;11.70;99.90;;;;;;4895068;29;20040;-58
2022/11/02 08:41:10;;;;;;;11.07;2.03;;;11.80;99.90;;;;;;4895359;29;20067;-57
2022/11/02 08:43:36;;;;;;;10.52;2.08;;;11.90;99.90;;;;;;4894610;29;20047;-58
2022/11/02 08:46:02;;;;;;;4.95;1.60;;;11.90;99.90;;;;;;4894563;29;20066;-57
2022/11/02 08:48:28;;;;;;;6.47;1.95;;;11.90;99.90;;;;;;4896710;29;20052;-57
2022/11/02 08:50:55;;;;;;;10.20;2.00;;;12.00;99.90;;;;;;4900121;29;20333;-58
2022/11/02 08:53:21;;;;;;;8.48;1.95;;;12.00;99.90;;;;;;4900096;29;20045;-57
2022/11/02 08:55:46;;;;;;;10.00;2.00;;;12.10;99.90;;;;;;4895978;29;20052;-58
2022/11/02 08:58:12;;;;;;;13.95;1.92;;;12.10;99.90;;;;;;4897933;29;20033;-57
2022/11/02 09:00:38;;;;;;;13.55;2.10;;;12.10;99.90;;;;;;4898441;29;20116;-58
2022/11/02 09:03:12;;;;;;;11.27;2.03;;;12.10;99.90;;;;;;4898947;29;20036;-58
2022/11/02 09:05:46;;;;;;;12.15;1.98;;;12.20;99.90;;;;;;4898109;29;20460;-57
2022/11/02 09:08:19;;;;;;;7.80;1.60;;;12.20;99.90;;;;;;4897790;29;20044;-58
2022/11/02 09:10:50;;;;;;;8.90;1.85;;;12.30;99.90;;;;;;4899702;29;20499;-58
2022/11/02 09:13:19;;;;;;;11.32;1.90;;;12.30;99.90;;;;;;4902831;29;20044;-58
2022/11/02 09:15:49;;;;;;;12.35;2.15;;;12.40;99.90;;;;;;4898228;29;20052;-58
2022/11/02 09:18:14;;;;;;;16.20;2.40;;;12.50;99.90;;;;;;4898947;29;20052;-58
2022/11/02 09:20:40;;;;;;;13.93;2.30;;;12.60;99.90;;;;;;4896783;29;20506;-58
2022/11/02 09:23:06;;;;;;;12.30;1.80;;;12.70;99.90;;;;;;4896812;29;20045;-59
2022/11/02 09:25:32;;;;;;;13.55;2.20;;;12.60;99.90;;;;;;4901146;29;20052;-57
2022/11/02 09:27:58;;;;;;;7.97;2.00;;;12.60;99.90;;;;;;4898381;29;20063;-59
2022/11/02 09:30:27;;;;;;;11.82;2.33;;;12.60;99.90;;;;;;4893451;29;20053;-57
2022/11/02 09:33:00;;;;;;;17.27;2.28;;;12.70;99.90;;;;;;4912202;29;20067;-59
2022/11/02 09:35:29;;;;;;;11.98;2.30;;;12.70;99.90;;;;;;4898246;29;20130;-58
2022/11/02 09:37:56;;;;;;;16.95;2.65;;;12.80;99.90;;;;;;4898758;29;20490;-59
2022/11/02 09:40:24;;;;;;;13.80;2.15;;;12.80;99.90;;;;;;4897476;29;20048;-57
2022/11/02 09:43:00;;;;;;;10.48;1.88;;;12.90;99.90;;;;;;4898187;29;20056;-59
2022/11/02 09:45:26;;;;;;;13.93;2.13;;;12.90;99.90;;;;;;4899276;29;20507;-58
2022/11/02 09:48:04;;;;;;;11.00;2.20;;;12.90;99.90;;;;;;4898311;29;20119;-58
2022/11/02 09:50:45;;;;;;;18.13;2.65;;;12.90;99.90;;;;;;4900520;29;20114;-59
2022/11/02 09:53:18;;;;;;;10.02;2.20;;;12.90;99.90;;;;;;4896977;29;20045;-58
2022/11/02 09:55:51;;;;;;;9.27;2.10;;;12.80;99.90;;;;;;4896316;29;20127;-58
2022/11/02 09:58:22;;;;;;;12.45;2.05;;;12.80;99.90;;;;;;4898042;29;20040;-58
2022/11/02 10:00:55;;;;;;;11.45;2.03;;;12.80;99.90;;;;;;4899224;29;20047;-58
2022/11/02 10:03:20;;;;;;;17.27;2.45;;;12.80;99.90;;;;;;4897642;29;20057;-57
2022/11/02 10:06:16;;;;;;;13.70;2.90;;;12.80;99.90;;;;;;4897947;29;20055;-57
2022/11/02 10:08:51;;;;;;;16.10;2.63;;;12.70;99.90;;;;;;4898230;29;20063;-58
2022/11/02 10:11:26;;;;;;;9.45;2.05;;;12.70;99.90;;;;;;4897541;29;20056;-57
2022/11/02 10:14:31;;;;;;;8.50;2.00;;;12.60;99.90;;;;;;4897345;29;20514;-56
2022/11/02 10:17:11;;;;;;;12.43;2.00;;;12.70;99.90;;;;;;4895245;29;20056;-57
2022/11/02 10:19:40;;;;;;;10.40;2.47;;;12.90;99.90;;;;;;4896147;29;20055;-58
2022/11/02 10:22:12;;;;;;;14.90;2.78;;;13.10;99.90;;;;;;4896798;29;20058;-57
2022/11/02 10:24:43;;;;;;;14.13;2.50;;;13.30;99.90;;;;;;4898033;29;20459;-57
2022/11/02 10:27:28;;;;;;;14.00;2.20;;;13.40;99.90;;;;;;4896181;29;20481;-58
2022/11/02 10:30:02;;;;;;;12.35;2.38;;;13.50;99.90;;;;;;4898842;29;20053;-57
2022/11/02 10:32:31;;;;;;;8.82;2.20;;;13.40;99.90;;;;;;4897155;29;20063;-58
2022/11/02 10:34:58;;;;;;;15.27;2.33;;;13.50;99.90;;;;;;4895755;29;20457;-57
2022/11/02 10:37:40;;;;;;;13.10;2.15;;;13.40;99.90;;;;;;4896687;29;20760;-57
2022/11/02 10:40:15;;;;;;;12.23;2.00;;;13.30;99.90;;;;;;4894307;29;20087;-58
2022/11/02 10:42:55;;;;;;;12.57;2.45;;;13.10;99.90;;;;;;4897341;29;20373;-58
2022/11/02 10:45:56;;;;;;;16.80;2.60;;;13.00;99.90;;;;;;4897786;29;20832;-57
2022/11/02 10:48:46;;;;;;;11.38;2.33;;;12.80;99.90;;;;;;4897769;29;20591;-59
2022/11/02 10:51:14;;;;;;;12.23;2.00;;;12.70;99.90;;;;;;4896921;29;20076;-57
2022/11/02 10:53:45;;;;;;;13.05;2.30;;;12.60;99.90;;;;;;4897846;29;20591;-57
2022/11/02 10:56:47;;;;;;;15.93;2.20;;;12.50;99.90;;;;;;4897062;29;20083;-58
2022/11/02 10:59:15;;;;;;;16.83;2.15;;;12.50;99.90;;;;;;4896085;29;20529;-57
2022/11/02 11:02:07;;;;;;;13.10;2.30;;;12.40;99.90;;;;;;4896067;29;20491;-57
2022/11/02 11:04:33;;;;;;;13.05;2.28;;;12.40;99.90;;;;;;4894749;29;20044;-57
2022/11/02 11:07:14;;;;;;;13.63;2.00;;;12.40;99.90;;;;;;4894557;29;20059;-58
2022/11/02 11:09:49;;;;;;;14.40;2.20;;;12.70;99.90;;;;;;4896427;29;21281;-58
2022/11/02 11:12:41;;;;;;;16.30;2.38;;;12.90;99.90;;;;;;4923094;28;20052;-57
2022/11/02 11:15:24;;;;;;;12.40;2.07;;;13.30;99.90;;;;;;4896169;29;21148;-58
2022/11/02 11:17:50;;;;;;;9.60;1.70;;;13.70;99.90;;;;;;4890227;29;20040;-58
2022/11/02 11:20:38;;;;;;;8.85;1.45;;;13.90;99.90;;;;;;4925950;29;20044;-59
2022/11/02 11:23:24;;;;;;;9.43;1.73;;;14.10;99.90;;;;;;4897452;29;20059;-58
2022/11/02 11:25:58;;;;;;;13.30;1.67;;;14.30;99.90;;;;;;4896553;29;20096;-58
2022/11/02 11:28:28;;;;;;;10.55;2.20;;;14.50;99.90;;;;;;4899259;29;20044;-58
2022/11/02 11:31:15;;;;;;;14.48;2.45;;;14.50;99.90;;;;;;4898326;29;20047;-57
2022/11/02 11:33:56;;;;;;;16.40;2.50;;;14.40;99.90;;;;;;4895911;29;20053;-57
2022/11/02 11:36:29;;;;;;;14.77;1.95;;;14.30;99.90;;;;;;4896124;29;20121;-58
2022/11/02 11:39:02;;;;;;;19.40;2.25;;;14.10;99.90;;;;;;4895873;29;20491;-58
2022/11/02 11:41:30;;;;;;;13.05;1.88;;;14.10;99.90;;;;;;4897173;29;20044;-59
2022/11/02 11:43:56;;;;;;;15.77;2.25;;;14.20;99.90;;;;;;4893267;29;20048;-57
2022/11/02 11:46:22;;;;;;;13.57;1.92;;;14.40;99.90;;;;;;4894234;29;20095;-58
2022/11/02 11:48:53;;;;;;;11.43;2.08;;;14.70;99.90;;;;;;4893468;29;20499;-57
2022/11/02 11:51:30;;;;;;;7.93;1.67;;;14.80;99.90;;;;;;4891713;29;20056;-59
2022/11/02 11:54:26;;;;;;;11.27;1.83;;;15.00;99.90;;;;;;4891830;29;20130;-57
2022/11/02 11:57:15;;;;;;;9.00;2.08;;;15.20;99.90;;;;;;4929905;29;20051;-59
2022/11/02 11:59:41;;;;;;;9.40;1.77;;;15.20;99.90;;;;;;4905844;29;20052;-58
2022/11/02 12:02:34;;;;;;;11.05;1.92;;;15.00;99.70;;;;;;4900595;29;20054;-58
2022/11/02 12:05:14;;;;;;;7.20;1.83;;;14.80;99.10;;;;;;4900920;29;20111;-58
2022/11/02 12:07:49;;;;;;;7.20;1.70;;;14.70;99.20;;;;;;4905935;29;20431;-58
2022/11/02 12:10:40;;;;;;;7.43;1.38;;;14.80;99.10;;;;;;4897260;29;20056;-57
2022/11/02 12:13:22;;;;;;;9.52;1.65;;;14.90;97.60;;;;;;4892924;29;20075;-58
2022/11/02 12:16:20;;;;;;;11.02;1.55;;;15.00;96.90;;;;;;4893979;29;20093;-58
2022/11/02 12:19:23;;;;;;;9.30;1.80;;;15.20;97.60;;;;;;4886024;29;20170;-58
2022/11/02 12:22:34;;;;;;;7.65;1.58;;;15.30;97.50;;;;;;4895240;29;20867;-59
2022/11/02 12:25:10;;;;;;;7.70;1.50;;;15.50;97.30;;;;;;4893398;29;20052;-58
2022/11/02 12:28:08;;;;;;;9.05;1.65;;;15.50;96.90;;;;;;4894346;29;20140;-59
2022/11/02 12:31:17;;;;;;;9.88;1.85;;;15.50;97.00;;;;;;4896016;29;20126;-58
2022/11/02 12:33:54;;;;;;;9.85;1.73;;;15.40;96.30;;;;;;4900089;29;20048;-58
2022/11/02 12:36:38;;;;;;;8.75;1.70;;;15.30;96.30;;;;;;4899018;29;20104;-58
2022/11/02 12:39:13;;;;;;;13.93;1.73;;;15.30;96.10;;;;;;4896569;29;20427;-58
2022/11/02 12:41:51;;;;;;;8.05;1.50;;;15.20;96.40;;;;;;4893239;29;20079;-59
2022/11/02 12:44:35;;;;;;;13.77;2.03;;;15.20;96.40;;;;;;4896498;29;20055;-57
2022/11/02 12:47:04;;;;;;;6.72;1.75;;;15.10;96.50;;;;;;4891857;29;20763;-58
2022/11/02 12:49:51;;;;;;;10.18;1.60;;;15.10;96.40;;;;;;4897014;29;20052;-58
2022/11/02 12:52:35;;;;;;;11.35;2.20;;;15.20;96.50;;;;;;4896034;29;20052;-58
2022/11/02 12:55:10;;;;;;;10.13;1.52;;;15.30;96.60;;;;;;4897397;29;20092;-58
2022/11/02 12:57:38;;;;;;;9.40;2.10;;;15.40;96.70;;;;;;4889340;29;20055;-58
2022/11/02 13:00:18;;;;;;;9.75;2.17;;;15.60;97.00;;;;;;4892896;29;20049;-58
2022/11/02 13:02:56;;;;;;;6.32;1.48;;;15.70;96.80;;;;;;4892642;29;20080;-58
2022/11/02 13:05:27;;;;;;;14.60;1.83;;;15.80;96.70;;;;;;4897005;29;20056;-58
2022/11/02 13:08:08;;;;;;;11.95;2.03;;;15.70;96.50;;;;;;4895939;29;20135;-57
2022/11/02 13:10:44;;;;;;;9.52;1.77;;;15.50;96.50;;;;;;4896964;29;20112;-59
2022/11/02 13:13:16;;;;;;;9.13;1.95;;;15.40;96.40;;;;;;4897364;29;20457;-58
2022/11/02 13:15:44;;;;;;;13.95;2.08;;;15.40;96.70;;;;;;4895286;29;20060;-59
2022/11/02 13:18:34;;;;;;;10.50;1.95;;;15.40;96.80;;;;;;4895433;29;20044;-58